QFA2534 RJBB-ROAH
Flight info
| Callsign | QFA2534 |
|---|---|
| Flight time | 1h 45m |
| Altitude | 36000 |
| Route | OBLUR Y236 MULAB Y75 ONC Y525 IHEYA |
| Aircraft | A339/H-SADE1E2E3GHIJ3J5M1P2RWXY/LB2D1 |
Departure
| Time | 2026-04-18 07:34 |
|---|---|
| Airport | Kansai International Airport (RJBB) |
Arrival
| Time | 2026-04-18 09:19 |
|---|---|
| Airport | Naha International Airport (ROAH) |
| Time | Latitude | Longitude | Altitude | Speed | Heading |
|---|---|---|---|---|---|
| 2026-04-18 07:23 | 34.43783 | 135.22846 | 38 ft | 0 kts | 144° |
| 2026-04-18 07:29 | 34.43781 | 135.22847 | 38 ft | 1 kts | 148° |
| 2026-04-18 07:30 | 34.43770 | 135.22841 | 37 ft | 2 kts | 191° |
| 2026-04-18 07:30 | 34.43762 | 135.22819 | 36 ft | 3 kts | 255° |
| 2026-04-18 07:30 | 34.43761 | 135.22771 | 37 ft | 9 kts | 266° |
| 2026-04-18 07:30 | 34.43757 | 135.22671 | 36 ft | 15 kts | 266° |
| 2026-04-18 07:31 | 34.43802 | 135.22531 | 36 ft | 22 kts | 324° |
| 2026-04-18 07:31 | 34.43932 | 135.22561 | 39 ft | 20 kts | 57° |
| 2026-04-18 07:31 | 34.44092 | 135.22797 | 37 ft | 46 kts | 51° |
| 2026-04-18 07:31 | 34.44293 | 135.23094 | 34 ft | 45 kts | 50° |
| 2026-04-18 07:32 | 34.44485 | 135.23378 | 38 ft | 42 kts | 51° |
| 2026-04-18 07:32 | 34.44666 | 135.23646 | 39 ft | 40 kts | 51° |
| 2026-04-18 07:32 | 34.44836 | 135.23911 | 36 ft | 40 kts | 52° |
| 2026-04-18 07:32 | 34.44953 | 135.24069 | 35 ft | 12 kts | 30° |
| 2026-04-18 07:33 | 34.45035 | 135.24069 | 35 ft | 11 kts | 340° |
| 2026-04-18 07:33 | 34.45081 | 135.24007 | 37 ft | 10 kts | 312° |
| 2026-04-18 07:33 | 34.45080 | 135.23944 | 38 ft | 7 kts | 245° |
| 2026-04-18 07:33 | 34.44970 | 135.23772 | 38 ft | 64 kts | 231° |
| 2026-04-18 07:34 | 34.44512 | 135.23095 | 37 ft | 141 kts | 231° |
| 2026-04-18 07:34 | 34.43809 | 135.22007 | 335 ft | 172 kts | 232° |
| 2026-04-18 07:34 | 34.43405 | 135.21189 | 924 ft | 172 kts | 245° |
| 2026-04-18 07:34 | 34.43105 | 135.19797 | 1816 ft | 170 kts | 263° |
| 2026-04-18 07:35 | 34.42985 | 135.18305 | 2430 ft | 187 kts | 266° |
| 2026-04-18 07:35 | 34.42855 | 135.16653 | 2878 ft | 207 kts | 264° |
| 2026-04-18 07:35 | 34.42642 | 135.14839 | 3235 ft | 229 kts | 262° |
| 2026-04-18 07:35 | 34.42341 | 135.12850 | 3606 ft | 250 kts | 259° |
| 2026-04-18 07:36 | 34.41978 | 135.10709 | 4006 ft | 266 kts | 259° |
| 2026-04-18 07:36 | 34.41590 | 135.08497 | 4653 ft | 270 kts | 258° |
| 2026-04-18 07:36 | 34.41198 | 135.06258 | 5323 ft | 274 kts | 258° |
| 2026-04-18 07:36 | 34.40920 | 135.03956 | 5979 ft | 278 kts | 267° |
| 2026-04-18 07:37 | 34.40814 | 135.01617 | 6670 ft | 280 kts | 267° |
| 2026-04-18 07:37 | 34.40700 | 134.99252 | 7356 ft | 281 kts | 267° |
| 2026-04-18 07:37 | 34.40580 | 134.96915 | 8051 ft | 283 kts | 268° |
| 2026-04-18 07:37 | 34.40454 | 134.94526 | 8741 ft | 286 kts | 268° |
| 2026-04-18 07:38 | 34.40256 | 134.92124 | 9425 ft | 289 kts | 261° |
| 2026-04-18 07:38 | 34.39628 | 134.89791 | 10110 ft | 295 kts | 247° |
| 2026-04-18 07:38 | 34.38600 | 134.87573 | 10473 ft | 312 kts | 241° |
| 2026-04-18 07:38 | 34.37452 | 134.85234 | 10674 ft | 333 kts | 241° |
| 2026-04-18 07:39 | 34.36254 | 134.82769 | 11023 ft | 344 kts | 242° |
| 2026-04-18 07:39 | 34.35047 | 134.80269 | 11716 ft | 345 kts | 242° |
| 2026-04-18 07:39 | 34.33839 | 134.77753 | 12400 ft | 346 kts | 242° |
| 2026-04-18 07:39 | 34.32631 | 134.75224 | 13069 ft | 348 kts | 242° |
| 2026-04-18 07:40 | 34.31420 | 134.72685 | 13718 ft | 350 kts | 242° |
| 2026-04-18 07:40 | 34.30199 | 134.70128 | 14311 ft | 351 kts | 242° |
| 2026-04-18 07:40 | 34.28976 | 134.67566 | 14931 ft | 352 kts | 242° |
| 2026-04-18 07:40 | 34.27597 | 134.65108 | 15528 ft | 355 kts | 234° |
| 2026-04-18 07:41 | 34.26019 | 134.62844 | 16096 ft | 356 kts | 232° |
| 2026-04-18 07:41 | 34.24415 | 134.60560 | 16682 ft | 357 kts | 232° |
| 2026-04-18 07:41 | 34.22808 | 134.58259 | 17291 ft | 358 kts | 232° |
| 2026-04-18 07:41 | 34.21204 | 134.55953 | 17867 ft | 359 kts | 232° |
| 2026-04-18 07:42 | 34.19592 | 134.53633 | 18450 ft | 360 kts | 232° |
| 2026-04-18 07:42 | 34.17979 | 134.51311 | 18921 ft | 363 kts | 232° |
| 2026-04-18 07:42 | 34.16352 | 134.48968 | 19400 ft | 365 kts | 233° |
| 2026-04-18 07:42 | 34.14713 | 134.46618 | 19903 ft | 366 kts | 233° |
| 2026-04-18 07:43 | 34.13066 | 134.44260 | 20398 ft | 368 kts | 233° |
| 2026-04-18 07:43 | 34.11411 | 134.41891 | 20896 ft | 370 kts | 233° |
| 2026-04-18 07:43 | 34.09746 | 134.39508 | 21386 ft | 372 kts | 233° |
| 2026-04-18 07:43 | 34.08091 | 134.37141 | 21872 ft | 374 kts | 233° |
| 2026-04-18 07:44 | 34.06417 | 134.34725 | 22374 ft | 376 kts | 234° |
| 2026-04-18 07:44 | 34.04742 | 134.32285 | 22875 ft | 379 kts | 234° |
| 2026-04-18 07:44 | 34.03053 | 134.29823 | 23367 ft | 381 kts | 234° |
| 2026-04-18 07:44 | 34.01358 | 134.27354 | 23847 ft | 383 kts | 234° |
| 2026-04-18 07:45 | 33.99653 | 134.24874 | 24319 ft | 384 kts | 234° |
| 2026-04-18 07:45 | 33.97945 | 134.22395 | 24791 ft | 385 kts | 234° |
| 2026-04-18 07:45 | 33.96231 | 134.19911 | 25230 ft | 386 kts | 234° |
| 2026-04-18 07:45 | 33.94510 | 134.17420 | 25678 ft | 387 kts | 234° |
| 2026-04-18 07:46 | 33.92808 | 134.14952 | 26131 ft | 388 kts | 233° |
| 2026-04-18 07:46 | 33.91077 | 134.12447 | 26523 ft | 390 kts | 233° |
| 2026-04-18 07:46 | 33.89331 | 134.09933 | 26945 ft | 391 kts | 233° |
| 2026-04-18 07:46 | 33.87587 | 134.07415 | 27389 ft | 392 kts | 233° |
| 2026-04-18 07:47 | 33.85838 | 134.04886 | 27808 ft | 394 kts | 233° |
| 2026-04-18 07:47 | 33.84079 | 134.02346 | 28239 ft | 395 kts | 233° |
| 2026-04-18 07:47 | 33.82317 | 133.99805 | 28661 ft | 396 kts | 233° |
| 2026-04-18 07:47 | 33.80548 | 133.97255 | 29050 ft | 399 kts | 232° |
| 2026-04-18 07:48 | 33.78767 | 133.94686 | 29416 ft | 401 kts | 232° |
| 2026-04-18 07:48 | 33.76974 | 133.92102 | 29746 ft | 403 kts | 233° |
| 2026-04-18 07:48 | 33.75303 | 133.89401 | 30102 ft | 403 kts | 236° |
| 2026-04-18 07:48 | 33.73670 | 133.86650 | 30431 ft | 403 kts | 236° |
| 2026-04-18 07:49 | 33.72037 | 133.83919 | 30904 ft | 401 kts | 237° |
| 2026-04-18 07:49 | 33.70417 | 133.81210 | 31395 ft | 398 kts | 237° |
| 2026-04-18 07:49 | 33.68800 | 133.78505 | 31759 ft | 400 kts | 237° |
| 2026-04-18 07:49 | 33.67173 | 133.75783 | 32090 ft | 400 kts | 237° |
| 2026-04-18 07:50 | 33.65552 | 133.73072 | 32521 ft | 398 kts | 238° |
| 2026-04-18 07:50 | 33.63937 | 133.70379 | 32843 ft | 398 kts | 238° |
| 2026-04-18 07:50 | 33.62342 | 133.67717 | 33132 ft | 398 kts | 238° |
| 2026-04-18 07:50 | 33.60728 | 133.65027 | 33427 ft | 397 kts | 238° |
| 2026-04-18 07:51 | 33.59114 | 133.62341 | 33679 ft | 396 kts | 238° |
| 2026-04-18 07:51 | 33.57507 | 133.59669 | 33997 ft | 394 kts | 238° |
| 2026-04-18 07:51 | 33.55912 | 133.57019 | 34272 ft | 391 kts | 238° |
| 2026-04-18 07:51 | 33.54320 | 133.54375 | 34470 ft | 391 kts | 238° |
| 2026-04-18 07:52 | 33.52729 | 133.51735 | 34677 ft | 390 kts | 238° |
| 2026-04-18 07:52 | 33.51145 | 133.49106 | 34858 ft | 390 kts | 238° |
| 2026-04-18 07:52 | 33.49557 | 133.46474 | 35064 ft | 389 kts | 238° |
| 2026-04-18 07:52 | 33.47974 | 133.43852 | 35245 ft | 388 kts | 238° |
| 2026-04-18 07:53 | 33.46392 | 133.41232 | 35389 ft | 388 kts | 238° |
| 2026-04-18 07:53 | 33.44807 | 133.38611 | 35537 ft | 388 kts | 238° |
| 2026-04-18 07:53 | 33.43226 | 133.35994 | 35692 ft | 387 kts | 238° |
| 2026-04-18 07:53 | 33.41601 | 133.33414 | 35850 ft | 388 kts | 235° |
| 2026-04-18 07:54 | 33.39921 | 133.30932 | 36009 ft | 388 kts | 235° |
| 2026-04-18 07:54 | 33.38223 | 133.28415 | 36038 ft | 388 kts | 235° |
| 2026-04-18 07:54 | 33.34848 | 133.23404 | 36048 ft | 386 kts | 235° |
| 2026-04-18 07:55 | 33.31476 | 133.18393 | 36038 ft | 387 kts | 235° |
| 2026-04-18 07:55 | 33.28092 | 133.13381 | 36038 ft | 387 kts | 235° |
| 2026-04-18 07:56 | 33.24709 | 133.08376 | 36034 ft | 388 kts | 235° |
| 2026-04-18 07:56 | 33.21316 | 133.03362 | 36033 ft | 388 kts | 235° |
| 2026-04-18 07:57 | 33.17915 | 132.98343 | 36034 ft | 388 kts | 235° |
| 2026-04-18 07:57 | 33.14519 | 132.93337 | 36039 ft | 388 kts | 235° |
| 2026-04-18 07:58 | 33.09459 | 132.85881 | 36067 ft | 385 kts | 235° |
| 2026-04-18 07:59 | 33.06073 | 132.80909 | 36025 ft | 387 kts | 234° |
| 2026-04-18 07:59 | 33.02673 | 132.75949 | 36027 ft | 388 kts | 233° |
| 2026-04-18 08:00 | 32.98992 | 132.71221 | 36022 ft | 389 kts | 231° |
| 2026-04-18 08:00 | 32.95273 | 132.66518 | 36027 ft | 389 kts | 231° |
| 2026-04-18 08:01 | 32.91563 | 132.61819 | 36021 ft | 389 kts | 231° |
| 2026-04-18 08:01 | 32.87879 | 132.57159 | 36017 ft | 389 kts | 231° |
| 2026-04-18 08:02 | 32.84174 | 132.52480 | 36019 ft | 388 kts | 231° |
| 2026-04-18 08:02 | 32.80457 | 132.47791 | 36021 ft | 390 kts | 231° |
| 2026-04-18 08:03 | 32.76737 | 132.43102 | 36019 ft | 390 kts | 231° |
| 2026-04-18 08:03 | 32.73003 | 132.38402 | 36022 ft | 391 kts | 231° |
| 2026-04-18 08:04 | 32.69270 | 132.33709 | 36016 ft | 391 kts | 230° |
| 2026-04-18 08:04 | 32.65530 | 132.29015 | 36019 ft | 391 kts | 230° |
| 2026-04-18 08:05 | 32.61809 | 132.24350 | 36014 ft | 392 kts | 230° |
| 2026-04-18 08:05 | 32.58037 | 132.19628 | 36019 ft | 392 kts | 230° |
| 2026-04-18 08:06 | 32.54283 | 132.14935 | 36018 ft | 392 kts | 230° |
| 2026-04-18 08:06 | 32.50545 | 132.10268 | 36020 ft | 392 kts | 230° |
| 2026-04-18 08:07 | 32.46636 | 132.05725 | 36016 ft | 396 kts | 225° |
| 2026-04-18 08:07 | 32.42168 | 132.01843 | 36019 ft | 402 kts | 218° |
| 2026-04-18 08:08 | 32.37345 | 131.98462 | 36019 ft | 403 kts | 217° |
| 2026-04-18 08:08 | 32.32521 | 131.95061 | 36017 ft | 403 kts | 217° |
| 2026-04-18 08:09 | 32.27701 | 131.91660 | 36029 ft | 403 kts | 217° |
| 2026-04-18 08:09 | 32.22874 | 131.88258 | 36021 ft | 404 kts | 217° |
| 2026-04-18 08:10 | 32.18081 | 131.84886 | 36030 ft | 404 kts | 217° |
| 2026-04-18 08:10 | 32.13248 | 131.81490 | 36026 ft | 404 kts | 217° |
| 2026-04-18 08:11 | 32.08416 | 131.78098 | 36023 ft | 404 kts | 217° |
| 2026-04-18 08:11 | 32.03586 | 131.74712 | 36019 ft | 404 kts | 217° |
| 2026-04-18 08:12 | 31.98752 | 131.71328 | 36013 ft | 404 kts | 217° |
| 2026-04-18 08:12 | 31.93916 | 131.67946 | 36002 ft | 404 kts | 217° |
| 2026-04-18 08:13 | 31.89105 | 131.64588 | 35995 ft | 404 kts | 217° |
| 2026-04-18 08:13 | 31.84263 | 131.61209 | 35993 ft | 405 kts | 217° |
| 2026-04-18 08:14 | 31.79405 | 131.57828 | 35990 ft | 405 kts | 217° |
| 2026-04-18 08:14 | 31.74536 | 131.54438 | 35995 ft | 406 kts | 217° |
| 2026-04-18 08:15 | 31.69701 | 131.51077 | 35998 ft | 407 kts | 217° |
| 2026-04-18 08:15 | 31.64819 | 131.47689 | 36002 ft | 407 kts | 217° |
| 2026-04-18 08:16 | 31.59937 | 131.44303 | 36007 ft | 408 kts | 217° |
| 2026-04-18 08:16 | 31.55044 | 131.40916 | 36013 ft | 408 kts | 217° |
| 2026-04-18 08:17 | 31.50148 | 131.37528 | 36014 ft | 409 kts | 217° |
| 2026-04-18 08:17 | 31.45240 | 131.34139 | 36012 ft | 409 kts | 217° |
| 2026-04-18 08:18 | 31.40327 | 131.30749 | 36011 ft | 411 kts | 217° |
| 2026-04-18 08:18 | 31.35413 | 131.27364 | 36010 ft | 409 kts | 217° |
| 2026-04-18 08:19 | 31.30531 | 131.24004 | 36011 ft | 410 kts | 217° |
| 2026-04-18 08:19 | 31.25587 | 131.20605 | 36008 ft | 410 kts | 217° |
| 2026-04-18 08:20 | 31.20696 | 131.17247 | 36007 ft | 410 kts | 216° |
| 2026-04-18 08:20 | 31.15781 | 131.13879 | 36004 ft | 410 kts | 216° |
| 2026-04-18 08:21 | 31.10864 | 131.10511 | 36000 ft | 410 kts | 216° |
| 2026-04-18 08:21 | 31.05944 | 131.07146 | 36002 ft | 410 kts | 216° |
| 2026-04-18 08:22 | 31.01019 | 131.03783 | 35998 ft | 410 kts | 216° |
| 2026-04-18 08:22 | 30.96086 | 131.00416 | 35997 ft | 411 kts | 216° |
| 2026-04-18 08:23 | 30.91155 | 130.97056 | 35990 ft | 411 kts | 216° |
| 2026-04-18 08:23 | 30.86213 | 130.93692 | 35996 ft | 411 kts | 216° |
| 2026-04-18 08:24 | 30.82108 | 130.90900 | 35993 ft | 411 kts | 216° |
| 2026-04-18 08:24 | 30.76359 | 130.86996 | 35991 ft | 412 kts | 216° |
| 2026-04-18 08:25 | 30.72214 | 130.84185 | 35993 ft | 412 kts | 216° |
| 2026-04-18 08:25 | 30.67261 | 130.80826 | 35989 ft | 412 kts | 216° |
| 2026-04-18 08:26 | 30.62328 | 130.77488 | 36002 ft | 412 kts | 216° |
| 2026-04-18 08:26 | 30.57361 | 130.74130 | 35997 ft | 413 kts | 216° |
| 2026-04-18 08:27 | 30.52393 | 130.70775 | 35989 ft | 413 kts | 216° |
| 2026-04-18 08:27 | 30.47416 | 130.67419 | 35984 ft | 414 kts | 216° |
| 2026-04-18 08:28 | 30.42437 | 130.64065 | 35981 ft | 414 kts | 216° |
| 2026-04-18 08:28 | 30.37486 | 130.60734 | 35981 ft | 414 kts | 216° |
| 2026-04-18 08:29 | 30.32502 | 130.57382 | 35978 ft | 414 kts | 216° |
| 2026-04-18 08:29 | 30.27501 | 130.54034 | 35979 ft | 415 kts | 216° |
| 2026-04-18 08:30 | 30.22498 | 130.50684 | 35979 ft | 415 kts | 216° |
| 2026-04-18 08:30 | 30.17499 | 130.47341 | 35973 ft | 414 kts | 216° |
| 2026-04-18 08:31 | 30.12500 | 130.44001 | 35975 ft | 415 kts | 216° |
| 2026-04-18 08:31 | 30.07533 | 130.40687 | 35967 ft | 415 kts | 216° |
| 2026-04-18 08:32 | 30.02529 | 130.37352 | 35979 ft | 416 kts | 216° |
| 2026-04-18 08:32 | 29.97505 | 130.34009 | 35979 ft | 417 kts | 216° |
| 2026-04-18 08:33 | 29.92491 | 130.30680 | 35970 ft | 414 kts | 216° |
| 2026-04-18 08:33 | 29.87497 | 130.27368 | 35965 ft | 416 kts | 216° |
| 2026-04-18 08:34 | 29.82486 | 130.24046 | 35965 ft | 415 kts | 216° |
| 2026-04-18 08:34 | 29.77470 | 130.20725 | 35962 ft | 415 kts | 216° |
| 2026-04-18 08:35 | 29.72490 | 130.17433 | 35960 ft | 415 kts | 216° |
| 2026-04-18 08:35 | 29.67475 | 130.14120 | 35957 ft | 416 kts | 216° |
| 2026-04-18 08:36 | 29.62450 | 130.10804 | 35956 ft | 416 kts | 216° |
| 2026-04-18 08:36 | 29.57422 | 130.07492 | 35951 ft | 416 kts | 216° |
| 2026-04-18 08:37 | 29.52387 | 130.04181 | 35947 ft | 417 kts | 216° |
| 2026-04-18 08:37 | 29.47348 | 130.00872 | 35944 ft | 417 kts | 215° |
| 2026-04-18 08:38 | 29.42312 | 129.97565 | 35953 ft | 417 kts | 215° |
| 2026-04-18 08:38 | 29.37269 | 129.94260 | 35948 ft | 418 kts | 215° |
| 2026-04-18 08:39 | 29.32217 | 129.90952 | 35947 ft | 418 kts | 215° |
| 2026-04-18 08:39 | 29.27160 | 129.87646 | 35947 ft | 418 kts | 215° |
| 2026-04-18 08:40 | 29.22130 | 129.84360 | 35944 ft | 419 kts | 215° |
| 2026-04-18 08:40 | 29.17067 | 129.81057 | 35948 ft | 419 kts | 215° |
| 2026-04-18 08:41 | 29.11999 | 129.77755 | 35943 ft | 419 kts | 215° |
| 2026-04-18 08:41 | 29.06932 | 129.74457 | 35943 ft | 419 kts | 215° |
| 2026-04-18 08:42 | 29.01855 | 129.71155 | 35938 ft | 419 kts | 215° |
| 2026-04-18 08:42 | 28.96779 | 129.67858 | 35944 ft | 420 kts | 215° |
| 2026-04-18 08:43 | 28.91685 | 129.64554 | 35941 ft | 420 kts | 215° |
| 2026-04-18 08:43 | 28.86601 | 129.61261 | 35937 ft | 420 kts | 215° |
| 2026-04-18 08:44 | 28.81548 | 129.57991 | 35933 ft | 420 kts | 215° |
| 2026-04-18 08:44 | 28.76446 | 129.54692 | 35934 ft | 420 kts | 215° |
| 2026-04-18 08:45 | 28.71357 | 129.51405 | 35929 ft | 420 kts | 215° |
| 2026-04-18 08:45 | 28.66263 | 129.48119 | 35926 ft | 421 kts | 214° |
| 2026-04-18 08:46 | 28.61168 | 129.44837 | 35926 ft | 421 kts | 214° |
| 2026-04-18 08:46 | 28.56095 | 129.41571 | 35923 ft | 421 kts | 214° |
| 2026-04-18 08:47 | 28.50982 | 129.38284 | 35922 ft | 421 kts | 214° |
| 2026-04-18 08:47 | 28.45878 | 129.35007 | 35921 ft | 421 kts | 214° |
| 2026-04-18 08:48 | 28.40777 | 129.31735 | 35919 ft | 421 kts | 214° |
| 2026-04-18 08:48 | 28.35669 | 129.28462 | 35918 ft | 422 kts | 214° |
| 2026-04-18 08:49 | 28.30585 | 129.25209 | 35919 ft | 422 kts | 214° |
| 2026-04-18 08:49 | 28.25467 | 129.21937 | 35921 ft | 422 kts | 214° |
| 2026-04-18 08:50 | 28.20346 | 129.18667 | 35925 ft | 422 kts | 214° |
| 2026-04-18 08:50 | 28.15225 | 129.15400 | 35922 ft | 422 kts | 214° |
| 2026-04-18 08:51 | 28.10101 | 129.12136 | 35921 ft | 422 kts | 214° |
| 2026-04-18 08:51 | 28.04973 | 129.08872 | 35913 ft | 422 kts | 214° |
| 2026-04-18 08:52 | 27.99848 | 129.05613 | 35916 ft | 422 kts | 214° |
| 2026-04-18 08:52 | 27.94723 | 129.02359 | 35911 ft | 422 kts | 214° |
| 2026-04-18 08:53 | 27.89592 | 128.99104 | 35914 ft | 423 kts | 214° |
| 2026-04-18 08:53 | 27.84492 | 128.95871 | 35911 ft | 423 kts | 214° |
| 2026-04-18 08:54 | 27.79354 | 128.92621 | 35914 ft | 423 kts | 214° |
| 2026-04-18 08:54 | 27.74211 | 128.89370 | 35911 ft | 424 kts | 214° |
| 2026-04-18 08:55 | 27.69063 | 128.86119 | 35908 ft | 424 kts | 214° |
| 2026-04-18 08:55 | 27.63908 | 128.82868 | 35900 ft | 424 kts | 214° |
| 2026-04-18 08:56 | 27.58752 | 128.79619 | 35894 ft | 425 kts | 214° |
| 2026-04-18 08:56 | 27.53589 | 128.76370 | 35887 ft | 425 kts | 214° |
| 2026-04-18 08:57 | 27.46020 | 128.71296 | 35877 ft | 420 kts | 221° |
| 2026-04-18 08:57 | 27.41878 | 128.66733 | 35877 ft | 415 kts | 233° |
| 2026-04-18 08:58 | 27.38748 | 128.61292 | 35874 ft | 414 kts | 240° |
| 2026-04-18 08:58 | 27.35831 | 128.55705 | 35904 ft | 414 kts | 240° |
| 2026-04-18 08:59 | 27.32886 | 128.50119 | 35907 ft | 415 kts | 240° |
| 2026-04-18 08:59 | 27.29940 | 128.44538 | 35910 ft | 415 kts | 240° |
| 2026-04-18 09:00 | 27.27013 | 128.38997 | 35911 ft | 415 kts | 240° |
| 2026-04-18 09:00 | 27.24061 | 128.33416 | 35903 ft | 415 kts | 240° |
| 2026-04-18 09:01 | 27.21112 | 128.27849 | 35904 ft | 415 kts | 240° |
| 2026-04-18 09:01 | 27.18160 | 128.22281 | 35890 ft | 415 kts | 240° |
| 2026-04-18 09:02 | 27.16691 | 128.19512 | 35738 ft | 412 kts | 240° |
| 2026-04-18 09:02 | 27.15221 | 128.16745 | 35068 ft | 414 kts | 240° |
| 2026-04-18 09:02 | 27.13734 | 128.13947 | 33942 ft | 422 kts | 240° |
| 2026-04-18 09:02 | 27.12208 | 128.11076 | 32448 ft | 432 kts | 240° |
| 2026-04-18 09:03 | 27.10655 | 128.08161 | 30998 ft | 437 kts | 240° |
| 2026-04-18 09:03 | 27.09089 | 128.05224 | 29549 ft | 441 kts | 241° |
| 2026-04-18 09:03 | 27.07516 | 128.02270 | 28362 ft | 439 kts | 240° |
| 2026-04-18 09:03 | 27.05957 | 127.99343 | 27454 ft | 435 kts | 240° |
| 2026-04-18 09:04 | 27.04214 | 127.96588 | 26635 ft | 434 kts | 231° |
| 2026-04-18 09:04 | 27.02021 | 127.94259 | 25862 ft | 434 kts | 220° |
| 2026-04-18 09:04 | 26.99508 | 127.92461 | 25134 ft | 435 kts | 211° |
| 2026-04-18 09:04 | 26.96688 | 127.91205 | 24405 ft | 437 kts | 200° |
| 2026-04-18 09:05 | 26.93697 | 127.90573 | 23731 ft | 439 kts | 189° |
| 2026-04-18 09:05 | 26.90641 | 127.90551 | 22976 ft | 439 kts | 182° |
| 2026-04-18 09:05 | 26.87596 | 127.90672 | 22160 ft | 435 kts | 182° |
| 2026-04-18 09:05 | 26.84582 | 127.90773 | 21367 ft | 432 kts | 182° |
| 2026-04-18 09:06 | 26.81584 | 127.90866 | 20586 ft | 429 kts | 182° |
| 2026-04-18 09:06 | 26.78609 | 127.90966 | 19798 ft | 426 kts | 182° |
| 2026-04-18 09:06 | 26.75652 | 127.91069 | 19020 ft | 423 kts | 182° |
| 2026-04-18 09:06 | 26.72715 | 127.91149 | 18259 ft | 420 kts | 183° |
| 2026-04-18 09:07 | 26.69801 | 127.91225 | 17444 ft | 417 kts | 183° |
| 2026-04-18 09:07 | 26.66918 | 127.91303 | 16720 ft | 411 kts | 182° |
| 2026-04-18 09:07 | 26.64082 | 127.91384 | 16042 ft | 404 kts | 182° |
| 2026-04-18 09:07 | 26.61289 | 127.91465 | 15298 ft | 400 kts | 182° |
| 2026-04-18 09:08 | 26.58539 | 127.91545 | 14661 ft | 392 kts | 182° |
| 2026-04-18 09:08 | 26.55824 | 127.91625 | 13977 ft | 387 kts | 182° |
| 2026-04-18 09:08 | 26.53142 | 127.91704 | 13219 ft | 383 kts | 182° |
| 2026-04-18 09:08 | 26.50538 | 127.91782 | 12588 ft | 376 kts | 182° |
| 2026-04-18 09:09 | 26.47950 | 127.91859 | 11941 ft | 370 kts | 182° |
| 2026-04-18 09:09 | 26.45392 | 127.91934 | 11320 ft | 364 kts | 182° |
| 2026-04-18 09:09 | 26.42901 | 127.92010 | 11013 ft | 353 kts | 182° |
| 2026-04-18 09:09 | 26.40428 | 127.92016 | 10973 ft | 356 kts | 188° |
| 2026-04-18 09:10 | 26.38820 | 127.91735 | 10844 ft | 352 kts | 197° |
| 2026-04-18 09:10 | 26.35809 | 127.90429 | 10221 ft | 344 kts | 210° |
| 2026-04-18 09:10 | 26.33673 | 127.89283 | 9722 ft | 336 kts | 209° |
| 2026-04-18 09:10 | 26.32309 | 127.88565 | 9597 ft | 324 kts | 209° |
| 2026-04-18 09:11 | 26.29671 | 127.87201 | 9360 ft | 299 kts | 209° |
| 2026-04-18 09:11 | 26.28442 | 127.86572 | 9211 ft | 288 kts | 209° |
| 2026-04-18 09:11 | 26.26637 | 127.85647 | 8682 ft | 284 kts | 209° |
| 2026-04-18 09:11 | 26.24851 | 127.84730 | 8118 ft | 282 kts | 209° |
| 2026-04-18 09:12 | 26.23077 | 127.83821 | 7546 ft | 280 kts | 209° |
| 2026-04-18 09:12 | 26.21315 | 127.82921 | 6974 ft | 278 kts | 208° |
| 2026-04-18 09:12 | 26.19567 | 127.82030 | 6424 ft | 276 kts | 208° |
| 2026-04-18 09:12 | 26.17830 | 127.81147 | 5928 ft | 271 kts | 208° |
| 2026-04-18 09:13 | 26.16124 | 127.80281 | 5522 ft | 270 kts | 208° |
| 2026-04-18 09:13 | 26.14411 | 127.79409 | 5120 ft | 271 kts | 208° |
| 2026-04-18 09:13 | 26.12709 | 127.78542 | 4708 ft | 266 kts | 208° |
| 2026-04-18 09:13 | 26.11014 | 127.77679 | 4277 ft | 268 kts | 208° |
| 2026-04-18 09:14 | 26.09332 | 127.76822 | 3881 ft | 264 kts | 208° |
| 2026-04-18 09:14 | 26.07683 | 127.75981 | 3480 ft | 264 kts | 207° |
| 2026-04-18 09:14 | 26.06091 | 127.75013 | 3081 ft | 259 kts | 221° |
| 2026-04-18 09:14 | 26.04998 | 127.73460 | 2705 ft | 257 kts | 247° |
| 2026-04-18 09:15 | 26.04624 | 127.71556 | 2327 ft | 251 kts | 268° |
| 2026-04-18 09:15 | 26.04636 | 127.69628 | 2078 ft | 243 kts | 274° |
| 2026-04-18 09:15 | 26.04733 | 127.67824 | 2001 ft | 224 kts | 279° |
| 2026-04-18 09:15 | 26.05422 | 127.66374 | 1914 ft | 208 kts | 317° |
| 2026-04-18 09:16 | 26.06633 | 127.65600 | 1818 ft | 201 kts | 342° |
| 2026-04-18 09:16 | 26.08022 | 127.65301 | 1751 ft | 200 kts | 354° |
| 2026-04-18 09:16 | 26.09323 | 127.65210 | 1645 ft | 175 kts | 358° |
| 2026-04-18 09:16 | 26.10463 | 127.65150 | 1451 ft | 155 kts | 356° |
| 2026-04-18 09:17 | 26.11520 | 127.65082 | 1311 ft | 156 kts | 356° |
| 2026-04-18 09:17 | 26.12586 | 127.65020 | 1107 ft | 147 kts | 357° |
| 2026-04-18 09:17 | 26.13566 | 127.64961 | 912 ft | 141 kts | 356° |
| 2026-04-18 09:17 | 26.14558 | 127.64842 | 704 ft | 142 kts | 354° |
| 2026-04-18 09:18 | 26.15516 | 127.64744 | 521 ft | 137 kts | 358° |
| 2026-04-18 09:18 | 26.16496 | 127.64723 | 405 ft | 143 kts | 1° |
| 2026-04-18 09:18 | 26.17485 | 127.64690 | 223 ft | 141 kts | 358° |
| 2026-04-18 09:18 | 26.18447 | 127.64649 | 57 ft | 136 kts | 358° |
| 2026-04-18 09:19 | 26.19313 | 127.64612 | 28 ft | 105 kts | 356° |
| 2026-04-18 09:19 | 26.19875 | 127.64582 | 26 ft | 69 kts | 358° |
| 2026-04-18 09:19 | 26.20309 | 127.64635 | 27 ft | 58 kts | 26° |
| 2026-04-18 09:19 | 26.20605 | 127.64751 | 28 ft | 33 kts | 0° |
| 2026-04-18 09:20 | 26.20816 | 127.64743 | 30 ft | 25 kts | 354° |
| 2026-04-18 09:20 | 26.20873 | 127.64762 | 29 ft | 2 kts | 70° |
| 2026-04-18 09:20 | 26.20857 | 127.64818 | 27 ft | 13 kts | 121° |
| 2026-04-18 09:20 | 26.20829 | 127.64860 | 31 ft | 0 kts | 137° |